Pagrindinis puslapis
METAR-TAF:

METAR-TAF

Oro uostai :

Hévíz, Vengrija

platuma: 46-41-11N, ilguma: 017-09-33E, Aukštis: 124 m

Dabartinis oras

Ataskaita buvo paskelbta 35 minutes, ne 20:15 UTC
Vėjas 3 kt iš Vakarų
Temperatūra 11°C
Drėgmė 50%
Slėgis 1021 hPa
Matomumas 10 km arba daugiau
nėra debesų žemiau 1500 m ir nėra kamuolinių lietaus debesų

METAR: LHSM 092015Z AUTO 28003KT CAVOK 11/01 Q1021

Laikas: 22:50 (20:50 UTC)


TAF: trūkstamas

Orai ataskaitas ir orų prognozės (METAR, TAF).

turimą stotys yra geltonos ir raudonos taškus žemėlapyje.

Perkelti pele per norėdami pamatyti stoties vardą.

Tada spustelėkite, norėdami matyti oro stebėjimo ir prognozės.

Norėdami pakeisti žemėlapį: spustelėkite ant žalios mygtukų su juodo kryžiaus žemyn,; žalią mygtuką su brūkšneliu, jei norite nutolinti; arba žalių rodyklių gretimoms žemėlapius.


METAR-TAF: